»·PEaware :: NWA1187 KBOI-KPDX

NWA1187 :: KBOI-KPDX

FLIGHT INFORMATION

Flight Status: Arrived
Operator:
Northwest Airlines
More flights by this operator :: More flights under this callsign
Pilot: Anonymous 12254 (12254)
Aircraft: SAAB 340
(SF34)
More flights by this aircraft type
Origin: KBOI Boise Air Terminal/Gowen
United States
Destination: KPDX Portland Intl
United States
More flights between these airports :: More routes between these airports
Route: +BOI3 BOI SAILL BUEEL IMB RABBI HHOOD4
File this flight plan on PilotEdge
Remarks:
Altitude:
(Current/Filed)
24,000ft
Speed:
(Current/Filed)
250kts
Departed: 17-May-19 01:17 PM
Arrived: 17-May-19 02:37 PM
Distance/Time
Traveled:
298nm/1:20
Distance/Time
To Go:
Arrived

Flight Plot

Page will automatically refresh every two minutes.

Flight plan parsing failed; only flown route is shown


Map Options




Map Legend


Flown Route
Filed Route
Departure Airport
Arrival Airport
Navaid (VOR, NDB)
Fix

Horizontal Profiles

Position Reports

Time Latitude Longitude Heading Altitude Ground
Speed
17-May-19 12:54 43.567803 -116.223993 100 2844ft 0kts
17-May-19 12:55 43.567803 -116.223993 100 2844ft 0kts
17-May-19 12:56 43.567803 -116.223993 100 2844ft 0kts
17-May-19 12:57 43.567803 -116.223993 100 2844ft 0kts
17-May-19 12:58 43.567803 -116.223993 100 2844ft 0kts
17-May-19 12:59 43.567803 -116.223993 100 2844ft 0kts
17-May-19 13:00 43.567803 -116.223993 100 2844ft 0kts
17-May-19 13:01 43.567803 -116.223993 100 2844ft 0kts
17-May-19 13:02 43.567803 -116.223993 100 2844ft 0kts
17-May-19 13:03 43.567803 -116.223993 100 2844ft 0kts
17-May-19 13:04 43.567803 -116.223993 100 2844ft 0kts
17-May-19 13:05 43.567803 -116.223993 100 2844ft 0kts
17-May-19 13:06 43.567803 -116.223993 100 2844ft 0kts
17-May-19 13:07 43.567803 -116.223993 100 2844ft 0kts
17-May-19 13:08 43.567803 -116.223993 100 2844ft 0kts
17-May-19 13:09 43.567803 -116.223993 100 2844ft 0kts
17-May-19 13:09 43.567803 -116.223993 100 2844ft 0kts
17-May-19 13:11 43.567803 -116.223993 100 2844ft 0kts
17-May-19 13:12 43.567803 -116.223993 100 2844ft 0kts
17-May-19 13:12 43.567025 -116.223492 166 2845ft 10kts
17-May-19 13:13 43.564580 -116.216893 116 2852ft 19kts
17-May-19 13:14 43.561992 -116.209306 115 2860ft 23kts
17-May-19 13:15 43.559589 -116.209792 206 2858ft 9kts
17-May-19 13:16 43.567027 -116.233545 295 3028ft 147kts
17-May-19 13:17 43.580414 -116.280266 293 4860ft 148kts
17-May-19 13:18 43.596647 -116.331493 293 7002ft 141kts
17-May-19 13:19 43.611764 -116.380628 297 8848ft 142kts
17-May-19 13:20 43.622612 -116.434211 287 10479ft 149kts
17-May-19 13:21 43.631512 -116.491707 287 11969ft 156kts
17-May-19 13:22 43.640631 -116.551499 288 13575ft 162kts
17-May-19 13:23 43.650166 -116.614217 288 15251ft 170kts
17-May-19 13:24 43.659105 -116.673115 288 16849ft 177kts
17-May-19 13:25 43.669381 -116.741157 289 18497ft 184kts
17-May-19 13:26 43.680059 -116.812192 289 19962ft 192kts
17-May-19 13:27 43.691127 -116.886155 289 21285ft 200kts
17-May-19 13:28 43.702467 -116.962386 288 22500ft 205kts
17-May-19 13:29 43.714141 -117.041134 288 23594ft 211kts
17-May-19 13:30 43.729508 -117.123201 300 24047ft 237kts
17-May-19 13:31 43.758044 -117.213209 299 24025ft 264kts
17-May-19 13:32 43.787945 -117.308329 299 24015ft 268kts
17-May-19 13:33 43.817559 -117.402875 299 24014ft 264kts
17-May-19 13:34 43.846746 -117.496355 299 24017ft 263kts
17-May-19 13:35 43.875692 -117.589423 299 24017ft 262kts
17-May-19 13:36 43.907675 -117.675604 303 24014ft 259kts
17-May-19 13:37 43.941007 -117.763849 303 24016ft 258kts
17-May-19 13:38 43.974481 -117.852972 303 24016ft 258kts
17-May-19 13:39 44.007540 -117.941295 303 24008ft 258kts
17-May-19 13:40 44.040701 -118.030167 303 24003ft 258kts
17-May-19 13:41 44.072561 -118.115832 303 24001ft 258kts
17-May-19 13:42 44.104300 -118.201437 303 24019ft 257kts
17-May-19 13:43 44.134338 -118.282648 302 24034ft 258kts
17-May-19 13:44 44.166786 -118.370691 303 24040ft 259kts
17-May-19 13:45 44.199670 -118.460203 303 24040ft 260kts
17-May-19 13:46 44.231124 -118.546087 303 24039ft 260kts
17-May-19 13:47 44.264098 -118.636395 303 24040ft 260kts
17-May-19 13:48 44.290080 -118.707782 302 24039ft 261kts
17-May-19 13:49 44.323184 -118.798988 302 24037ft 262kts
17-May-19 13:50 44.356314 -118.890570 302 24039ft 262kts
17-May-19 13:51 44.389433 -118.982402 289 24037ft 263kts
17-May-19 13:52 44.422068 -119.073187 291 24036ft 263kts
17-May-19 13:53 44.455076 -119.165492 291 24034ft 264kts
17-May-19 13:54 44.488031 -119.257833 292 24036ft 264kts
17-May-19 13:55 44.520856 -119.350091 292 24034ft 264kts
17-May-19 13:56 44.553564 -119.442410 291 24035ft 264kts
17-May-19 13:57 44.586002 -119.534182 291 24036ft 264kts
17-May-19 13:58 44.618507 -119.626493 291 24035ft 264kts
17-May-19 13:59 44.649228 -119.711186 306 24016ft 270kts
17-May-19 14:00 44.699233 -119.789804 307 24038ft 270kts
17-May-19 14:01 44.750229 -119.868540 307 24054ft 270kts
17-May-19 14:02 44.801299 -119.947655 306 24055ft 272kts
17-May-19 14:03 44.851770 -120.026014 307 24038ft 273kts
17-May-19 14:04 44.903106 -120.105888 307 24033ft 273kts
17-May-19 14:05 44.954290 -120.185812 307 24044ft 273kts
17-May-19 14:06 45.005293 -120.265633 306 24058ft 273kts
17-May-19 14:07 45.056134 -120.345465 307 24054ft 274kts
17-May-19 14:08 45.106556 -120.424856 306 24057ft 275kts
17-May-19 14:09 45.155545 -120.502212 306 24052ft 275kts
17-May-19 14:10 45.196166 -120.595989 293 23177ft 297kts
17-May-19 14:11 45.235450 -120.697701 293 21789ft 314kts
17-May-19 14:12 45.277820 -120.807907 294 20300ft 318kts
17-May-19 14:13 45.320137 -120.918443 294 18858ft 314kts
17-May-19 14:14 45.353675 -121.006330 294 17868ft 307kts
17-May-19 14:15 45.393138 -121.110009 294 16944ft 277kts
17-May-19 14:16 45.426956 -121.199662 290 16113ft 247kts
17-May-19 14:17 45.446376 -121.293391 284 14610ft 246kts
17-May-19 14:18 45.465363 -121.389579 285 12944ft 243kts
17-May-19 14:19 45.482933 -121.478407 286 12129ft 231kts
17-May-19 14:20 45.500481 -121.567207 286 11015ft 232kts
17-May-19 14:21 45.517862 -121.655595 285 9907ft 232kts
17-May-19 14:22 45.530282 -121.741995 274 8852ft 231kts
17-May-19 14:23 45.534583 -121.833075 274 7737ft 228kts
17-May-19 14:24 45.538935 -121.921585 268 6733ft 213kts
17-May-19 14:25 45.540592 -122.001546 273 6752ft 212kts
17-May-19 14:26 45.521117 -122.083877 237 6313ft 245kts
17-May-19 14:27 45.483022 -122.160160 236 5715ft 207kts
17-May-19 14:28 45.476297 -122.224683 272 5715ft 146kts
17-May-19 14:29 45.470518 -122.278440 294 5262ft 155kts
17-May-19 14:30 45.492563 -122.334470 296 3909ft 156kts
17-May-19 14:31 45.512804 -122.385951 295 2976ft 143kts
17-May-19 14:32 45.532024 -122.434927 295 2167ft 139kts
17-May-19 14:33 45.550986 -122.483292 295 1410ft 140kts
17-May-19 14:34 45.570147 -122.532318 295 642ft 138kts
17-May-19 14:35 45.588046 -122.578585 298 21ft 96kts
17-May-19 14:36 45.590288 -122.587915 269 21ft 19kts
17-May-19 14:37 45.590023 -122.591025 213 21ft 0kts

Navigation Log

Ident Type
Flight plan parsing failed, navigation log unavailable